New Raymer, CO (80742)

4:23 PM MST on February 26, 2015 (GMT -0700)
Fort Morgan | Change Station
CLOSE
Current Station
Airport
Location: Fort Morgan,
Elevation: 4570 ft
Nearby Weather Stations

Elev 4570 ft 40.33 °N, 103.80 °W | Updated 8 minutes ago

Overcast
Overcast
16 °F
Feels Like 3 °F
N
12
Wind Variable Wind from ENE

Today
High -- | Low -- °F
--% Chance of Precip.
Yesterday
High -- | Low -- °F
Precip. -- in
6:34 AM 5:43 PM
Waxing Gibbous, 63% visible
Pressure 30.21 in
Visibility 5.0 miles
Clouds Scattered Clouds 1500 ft
Overcast 5500 ft
Windchill 3 °F
Dew Point 10 °F
Humidity 77%
Rainfall 0.00 in
Snow Depth Not available.
UV 0 out of 12
Pollen .50 out of 12
Air Quality Not available.
Flu Activity Not available.
METAR KFMM 262315Z AUTO 06010KT 5SM -SN SCT015 OVC055 M09/M12 A3021 RMK AO2 T10901123

More Conditions Fewer Conditions

Pressure 30.21 in
Visibility 5.0 miles
Clouds Scattered Clouds 1500 ft
Overcast 5500 ft
Windchill 3 °F
Dew Point 10 °F
Humidity 77%
Rainfall 0.00 in
Snow Depth Not available.
UV 0 out of 12
Pollen .50 out of 12
Air Quality Not available.
Flu Activity Not available.
METAR KFMM 262315Z AUTO 06010KT 5SM -SN SCT015 OVC055 M09/M12 A3021 RMK AO2 T10901123

More Conditions Fewer Conditions

10-Day Weather Forecast

Almanac

Astronomy

Feb. 26, 2015 Rise Set
Actual Time
Civil Twilight
Nautical Twilight
Astronomical Twilight
Moon
Length of Visible Light
Length of Day
Tomorrow will be .
, % of the Moon is Illuminated

Today's Extremes

State Highs State Lows

Community

WunderPhotos

Upload Photos

1,800,526 photos uploaded!

WunderBlogs® & News

Nearby

Air Quality

  Air Quality AQ Index Pollutant
Not available.

Snow Depth

Station Depth Elevation

Earthquake Activity

City Distance Mag. Time & Date
Minimum magnitude displayed is 2.5.

Coastal Water Temperatures

Place Temperature

Nearby Weather Stations